Hlavní strana
METAR-TAF:

METAR-TAF

Letiště :

Belleville, Illinois, Spojené státy americké

zeměpisná šířka: 38-33N, zeměpisná délka: 089-51W, výška: 140 m

Aktuální stav počasí

Zpráva byla vytvořena před 1 hodinou a 4 minutami, v 10:56 UTC
Bezvětří
Teplota -1°C
Vlhkost vzduchu 100%
Tlak 1027 hPa
Viditelnost: 16.1 km
Jasno

METAR: KBLV 071056Z AUTO 00000KT 10SM CLR M01/M01 A3034 RMK AO2 SLP280 T10061007 $

Čas: 06:00 (12:00 UTC)

Předpověď počasí

Zpráva byla vytvořena před 4 hodinami a 0 minutami, v 08:00 UTC
Předpověď platná od 07 v 08 UTC do 08 v 14 UTC
vítr z různých směrů 6 kt
Viditelnost 10 km a více
Skoro jasno ve výšce 5000 ft

TAF: KBLV 070800Z 0708/0814 VRB06KT 9999 FEW050 QNH3032INS TX18/0720Z TN00/0711Z

Stav a předpovědi počasí z více než 4 000 letišť (zprávy METAR a TAF).

Červené a žluté tečky na mapě představují dostupné meteorologické stanice.

Když kurzor umístíte na tečku, zobrazí se název stanice.

Pak kliknutím zobrazíte stav a předpověď počasí.

Chcete-li změnit mapu, kliknutím na zelené tlačítko se znaménkem +mapu přiblížíte, kliknutím na zelené tlačítko se znaménkem – mapu oddálíte a kliknutím na zelené šipky přejdete na sousední mapy.


METAR-TAF: